createdAt,value
2018-01-11T00:00:19.155Z,100258.20
2018-01-11T00:02:46.083Z,100252.93
2018-01-11T00:05:12.944Z,100257.44
2018-01-11T00:07:39.963Z,100262.07
2018-01-11T00:10:06.845Z,100265.20
2018-01-11T00:12:34.327Z,100262.84
2018-01-11T00:15:01.245Z,100262.48
2018-01-11T00:17:29.554Z,100267.47
2018-01-11T00:19:57.214Z,100265.25
2018-01-11T00:22:24.032Z,100260.19
2018-01-11T00:24:51.035Z,100265.61
2018-01-11T00:27:17.963Z,100265.76
2018-01-11T00:29:45.577Z,100266.12
2018-01-11T00:32:12.776Z,100264.09
2018-01-11T00:34:39.818Z,100261.89
2018-01-11T00:37:07.388Z,100265.49
2018-01-11T00:39:34.618Z,100267.69
2018-01-11T00:42:01.796Z,100267.77
2018-01-11T00:44:28.925Z,100263.03
2018-01-11T00:46:56.143Z,100269.08
2018-01-11T00:49:23.628Z,100267.41
2018-01-11T00:51:51.465Z,100271.10
2018-01-11T00:54:18.490Z,100267.16
2018-01-11T00:56:48.015Z,100266.37
2018-01-11T00:59:15.132Z,100270.38
2018-01-11T01:01:44.276Z,100266.08
2018-01-11T01:04:11.342Z,100271.83
2018-01-11T01:06:38.401Z,100276.72
2018-01-11T01:09:06.886Z,100275.31
2018-01-11T01:11:35.280Z,100279.88
2018-01-11T01:14:05.765Z,100277.27
2018-01-11T01:16:34.140Z,100281.88
2018-01-11T01:19:01.270Z,100285.24
2018-01-11T01:21:30.146Z,100289.58
2018-01-11T01:23:57.430Z,100289.91
2018-01-11T01:26:25.261Z,100287.05
2018-01-11T01:28:52.998Z,100292.05
2018-01-11T01:31:20.026Z,100295.00
2018-01-11T01:33:46.925Z,100293.88
2018-01-11T01:36:14.297Z,100294.25
2018-01-11T01:38:43.197Z,100295.05
2018-01-11T01:41:10.129Z,100296.86
2018-01-11T01:43:36.982Z,100301.01
2018-01-11T01:46:04.369Z,100302.02
2018-01-11T01:48:43.269Z,100301.56
2018-01-11T01:51:11.242Z,100305.77
2018-01-11T01:53:38.337Z,100312.45
2018-01-11T01:56:06.350Z,100313.86
2018-01-11T01:58:33.294Z,100314.38
2018-01-11T02:01:00.194Z,100320.36
2018-01-11T02:03:27.857Z,100318.37
2018-01-11T02:05:55.015Z,100322.76
2018-01-11T02:08:21.915Z,100318.60
2018-01-11T02:10:49.531Z,100316.48
2018-01-11T02:13:16.899Z,100321.08
2018-01-11T02:15:52.898Z,100321.54
2018-01-11T02:18:23.494Z,100320.06
2018-01-11T02:20:53.782Z,100318.82
2018-01-11T02:23:24.700Z,100326.70
2018-01-11T02:25:57.721Z,100323.23
2018-01-11T02:31:11.344Z,100325.66
2018-01-11T02:33:43.525Z,100321.13
2018-01-11T02:36:11.846Z,100320.45
2018-01-11T02:38:47.196Z,100321.63
2018-01-11T02:46:53.970Z,100321.22
2018-01-11T02:49:46.002Z,100323.17
2018-01-11T02:52:16.447Z,100327.20
2018-01-11T02:57:20.643Z,100328.27
2018-01-11T03:17:56.435Z,100336.18
2018-01-11T03:20:24.452Z,100343.10
2018-01-11T03:22:57.304Z,100348.19
2018-01-11T03:25:25.685Z,100346.06
2018-01-11T03:27:54.345Z,100347.53
2018-01-11T03:30:23.448Z,100349.44
2018-01-11T03:32:51.681Z,100351.70
2018-01-11T03:35:19.812Z,100351.97
2018-01-11T03:37:48.997Z,100354.75
2018-01-11T03:40:16.704Z,100348.69
2018-01-11T03:42:44.697Z,100350.75
2018-01-11T03:45:12.276Z,100354.32
2018-01-11T03:47:39.927Z,100354.91
2018-01-11T03:50:07.485Z,100350.59
2018-01-11T03:52:35.008Z,100352.84
2018-01-11T03:55:02.568Z,100356.11
2018-01-11T03:57:31.054Z,100361.42
2018-01-11T03:59:58.461Z,100364.48
2018-01-11T04:02:43.306Z,100366.06
2018-01-11T04:05:10.769Z,100367.78
2018-01-11T04:07:39.486Z,100367.03
2018-01-11T04:10:07.394Z,100370.83
2018-01-11T04:12:34.911Z,100376.08
2018-01-11T04:15:02.157Z,100380.30
2018-01-11T04:17:29.598Z,100381.91
2018-01-11T04:19:57.097Z,100380.91
2018-01-11T04:22:25.430Z,100387.10
2018-01-11T04:24:52.943Z,100387.13
2018-01-11T04:27:22.315Z,100382.14
2018-01-11T04:29:49.801Z,100388.11
2018-01-11T04:32:17.267Z,100388.54
2018-01-11T04:34:46.271Z,100385.97
2018-01-11T04:37:13.805Z,100394.64
2018-01-11T04:39:44.035Z,100393.56
2018-01-11T04:42:13.353Z,100400.91
2018-01-11T04:44:41.573Z,100399.90
2018-01-11T04:47:14.081Z,100401.52
2018-01-11T04:49:42.963Z,100409.74
2018-01-11T04:52:10.434Z,100407.70
2018-01-11T04:54:44.126Z,100413.08
2018-01-11T05:15:11.313Z,100428.97
2018-01-11T05:17:42.699Z,100431.11
2018-01-11T05:20:13.268Z,100438.73
2018-01-11T05:23:03.780Z,100443.55
2018-01-11T05:25:38.410Z,100443.33
2018-01-11T05:28:08.992Z,100446.98
2018-01-11T06:30:32.662Z,100522.70
2018-01-11T07:07:24.782Z,100557.69
2018-01-11T07:09:55.081Z,100565.51
2018-01-11T07:12:26.131Z,100559.59
2018-01-11T07:17:33.889Z,100569.16
2018-01-11T07:22:40.445Z,100568.66
2018-01-11T07:25:09.774Z,100573.41
2018-01-11T07:27:43.552Z,100571.45
2018-01-11T07:30:11.239Z,100576.65
2018-01-11T07:32:41.009Z,100582.19
2018-01-11T07:35:17.037Z,100585.92
2018-01-11T07:37:44.687Z,100588.81
2018-01-11T07:42:50.009Z,100595.65
2018-01-11T07:45:23.207Z,100600.16
2018-01-11T07:47:54.451Z,100601.98
2018-01-11T07:50:26.977Z,100607.95
2018-01-11T07:52:54.365Z,100604.22
2018-01-11T07:55:21.639Z,100608.17
2018-01-11T07:57:49.695Z,100607.95
2018-01-11T08:00:17.628Z,100616.81
2018-01-11T08:02:45.384Z,100621.03
2018-01-11T08:05:12.608Z,100619.95
2018-01-11T08:07:39.891Z,100623.87
2018-01-11T08:10:07.323Z,100624.44
2018-01-11T08:12:36.188Z,100633.86
2018-01-11T08:15:04.120Z,100636.69
2018-01-11T08:17:31.420Z,100639.59
2018-01-11T08:19:59.319Z,100646.62
2018-01-11T08:22:26.599Z,100647.42
2018-01-11T08:24:54.090Z,100650.41
2018-01-11T08:27:21.431Z,100652.81
2018-01-11T08:29:49.039Z,100655.59
2018-01-11T08:32:16.487Z,100658.24
2018-01-11T08:34:43.887Z,100665.09
2018-01-11T08:37:11.266Z,100660.52
2018-01-11T08:39:38.561Z,100661.33
2018-01-11T08:42:06.022Z,100655.20
2018-01-11T08:44:33.461Z,100661.63
2018-01-11T08:47:00.806Z,100661.31
2018-01-11T08:49:28.016Z,100667.78
2018-01-11T08:51:55.177Z,100667.36
2018-01-11T08:54:22.461Z,100668.45
2018-01-11T08:56:49.589Z,100673.48
2018-01-11T08:59:19.186Z,100678.53
2018-01-11T09:01:47.044Z,100675.41
2018-01-11T09:04:14.437Z,100679.19
2018-01-11T09:06:42.543Z,100679.30
2018-01-11T09:09:09.783Z,100695.84
2018-01-11T09:11:37.032Z,100696.09
2018-01-11T09:14:04.605Z,100699.50
2018-01-11T09:16:31.806Z,100705.56
2018-01-11T09:18:58.854Z,100697.61
2018-01-11T09:21:26.145Z,100702.87
2018-01-11T09:23:53.606Z,100706.22
2018-01-11T09:26:20.848Z,100707.27
2018-01-11T09:28:49.047Z,100716.45
2018-01-11T09:31:16.417Z,100716.69
2018-01-11T09:33:43.609Z,100730.09
2018-01-11T09:36:10.875Z,100726.91
2018-01-11T09:38:38.242Z,100724.19
2018-01-11T09:41:06.527Z,100738.08
2018-01-11T09:43:34.923Z,100742.33
2018-01-11T09:46:02.011Z,100742.66
2018-01-11T09:48:29.308Z,100748.60
2018-01-11T09:50:57.320Z,100754.99
2018-01-11T09:53:24.530Z,100753.18
2018-01-11T09:55:51.626Z,100754.43
2018-01-11T09:58:19.743Z,100753.11
2018-01-11T10:00:47.019Z,100768.14
2018-01-11T10:03:13.948Z,100764.22
2018-01-11T10:05:40.904Z,100768.08
2018-01-11T10:08:07.980Z,100771.86
2018-01-11T10:10:35.017Z,100773.11
2018-01-11T10:13:02.130Z,100771.20
2018-01-11T10:15:29.972Z,100769.77
2018-01-11T10:18:00.567Z,100771.42
2018-01-11T10:20:28.054Z,100771.92
2018-01-11T10:25:35.570Z,100780.71
2018-01-11T10:28:02.941Z,100776.31
2018-01-11T10:30:30.360Z,100778.28
2018-01-11T10:32:58.742Z,100780.76
2018-01-11T10:35:26.386Z,100781.36
2018-01-11T10:37:54.656Z,100782.08
2018-01-11T10:40:23.026Z,100782.39
2018-01-11T10:42:50.986Z,100786.16
2018-01-11T10:45:23.526Z,100789.45
2018-01-11T10:47:53.998Z,100788.50
2018-01-11T10:50:23.457Z,100794.92
2018-01-11T11:10:52.158Z,100803.29
2018-01-11T11:55:48.639Z,100797.25
2018-01-11T12:46:09.220Z,100802.36
2018-01-11T13:04:20.244Z,100825.72
2018-01-11T13:07:18.146Z,100828.55
2018-01-11T13:09:50.083Z,100833.70
2018-01-11T13:12:17.042Z,100836.30
2018-01-11T13:14:44.019Z,100836.19
2018-01-11T13:17:12.354Z,100840.59
2018-01-11T13:19:39.884Z,100841.38
2018-01-11T13:24:39.595Z,100849.63
2018-01-11T13:29:43.295Z,100858.55
2018-01-11T13:32:10.882Z,100858.78
2018-01-11T13:34:38.121Z,100860.20
2018-01-11T13:37:15.922Z,100863.05
2018-01-11T13:42:38.933Z,100868.95
2018-01-11T13:45:17.154Z,100873.69
2018-01-11T13:47:50.434Z,100876.04
2018-01-11T13:50:20.516Z,100878.93
2018-01-11T13:52:51.268Z,100880.03
2018-01-11T14:03:57.059Z,100896.91
2018-01-11T14:06:26.301Z,100905.44
2018-01-11T14:09:01.909Z,100912.70
2018-01-11T14:11:42.559Z,100916.69
2018-01-11T14:14:29.718Z,100913.25
2018-01-11T14:25:19.242Z,100922.91
2018-01-11T14:27:55.933Z,100922.43
2018-01-11T14:52:21.864Z,100951.78
2018-01-11T15:49:36.209Z,101006.06
2018-01-11T15:52:29.131Z,101008.16
2018-01-11T15:55:07.491Z,101014.34
2018-01-11T17:15:37.564Z,101095.02
2018-01-11T18:32:58.818Z,101160.53
2018-01-11T18:35:27.141Z,101161.80
2018-01-11T18:37:56.544Z,101165.84
2018-01-11T18:40:24.538Z,101163.07
2018-01-11T19:24:33.069Z,101200.18
2018-01-11T19:27:01.143Z,101204.36
2018-01-11T20:09:19.937Z,101242.08
2018-01-11T20:11:49.867Z,101247.92
2018-01-11T20:14:20.034Z,101255.20
2018-01-11T20:16:55.684Z,101248.69
2018-01-11T20:22:00.523Z,101255.91
2018-01-11T20:24:30.322Z,101257.50
2018-01-11T20:29:38.942Z,101266.16
2018-01-11T20:32:07.640Z,101262.05
2018-01-11T20:55:27.686Z,101279.36
2018-01-11T21:40:28.546Z,101312.09
2018-01-11T21:42:55.407Z,101315.80
2018-01-11T21:45:22.357Z,101318.95
2018-01-11T21:47:50.158Z,101314.67
2018-01-11T21:50:17.079Z,101314.08
2018-01-11T21:52:43.929Z,101318.41
2018-01-11T21:55:10.888Z,101331.33
2018-01-11T21:57:39.123Z,101330.73
2018-01-11T22:00:06.039Z,101327.73
2018-01-11T22:02:32.829Z,101329.06
2018-01-11T22:05:00.431Z,101338.05
2018-01-11T22:07:27.293Z,101333.04
2018-01-11T22:09:54.690Z,101336.75
2018-01-11T22:12:21.560Z,101346.52
2018-01-11T22:14:48.392Z,101347.97
2018-01-11T22:17:15.296Z,101346.17
2018-01-11T22:19:42.245Z,101351.72
2018-01-11T22:22:09.100Z,101352.98
2018-01-11T22:24:36.043Z,101360.61
2018-01-11T22:27:02.950Z,101364.64
2018-01-11T22:29:29.779Z,101367.30
2018-01-11T22:31:56.672Z,101371.59
2018-01-11T22:34:23.510Z,101369.45
2018-01-11T22:36:50.337Z,101373.04
2018-01-11T22:39:17.894Z,101384.86
2018-01-11T22:41:44.706Z,101383.70
2018-01-11T22:44:11.561Z,101384.19
2018-01-11T22:46:38.435Z,101383.36
2018-01-11T22:49:05.253Z,101385.27
2018-01-11T22:51:32.836Z,101384.28
2018-01-11T22:54:00.400Z,101386.21
2018-01-11T22:56:27.208Z,101394.61
2018-01-11T22:58:54.033Z,101391.28
2018-01-11T23:01:21.647Z,101384.99
2018-01-11T23:03:48.438Z,101379.00
2018-01-11T23:06:15.328Z,101384.91
2018-01-11T23:08:42.889Z,101383.29
2018-01-11T23:11:09.715Z,101391.73
2018-01-11T23:13:36.548Z,101391.28
2018-01-11T23:16:03.402Z,101389.50
2018-01-11T23:18:30.222Z,101392.95
2018-01-11T23:20:56.995Z,101390.38
2018-01-11T23:23:23.849Z,101388.70
2018-01-11T23:25:51.041Z,101388.31
2018-01-11T23:28:17.868Z,101395.97
2018-01-11T23:30:44.675Z,101402.22
2018-01-11T23:33:12.146Z,101402.27
2018-01-11T23:35:38.971Z,101403.17
2018-01-11T23:38:05.798Z,101404.97
2018-01-11T23:40:32.639Z,101404.97
2018-01-11T23:42:59.477Z,101417.20
2018-01-11T23:45:27.011Z,101413.36
2018-01-11T23:47:53.891Z,101413.40
2018-01-11T23:50:20.761Z,101419.00
2018-01-11T23:52:47.620Z,101424.20
2018-01-11T23:55:14.400Z,101431.19
2018-01-11T23:57:42.014Z,101426.42
